sensor_id;sensor_type;location;lat;lon;timestamp;temperature;humidity
53264;DHT22;39153;52.680;6.172;2024-03-29T00:00:39;8.10;99.90
53264;DHT22;39153;52.680;6.172;2024-03-29T00:03:06;8.10;99.90
53264;DHT22;39153;52.680;6.172;2024-03-29T00:05:33;8.10;99.90
53264;DHT22;39153;52.680;6.172;2024-03-29T00:07:58;8.10;99.90
53264;DHT22;39153;52.680;6.172;2024-03-29T00:10:24;8.10;99.90
53264;DHT22;39153;52.680;6.172;2024-03-29T00:12:49;8.10;99.90
53264;DHT22;39153;52.680;6.172;2024-03-29T00:15:15;8.10;99.90
53264;DHT22;39153;52.680;6.172;2024-03-29T00:17:41;8.10;99.90
53264;DHT22;39153;52.680;6.172;2024-03-29T00:20:07;8.30;99.90
53264;DHT22;39153;52.680;6.172;2024-03-29T00:22:33;8.00;99.90
53264;DHT22;39153;52.680;6.172;2024-03-29T00:24:59;8.10;99.90
53264;DHT22;39153;52.680;6.172;2024-03-29T00:27:25;8.00;99.90
53264;DHT22;39153;52.680;6.172;2024-03-29T00:29:52;8.10;99.90
53264;DHT22;39153;52.680;6.172;2024-03-29T00:32:21;8.10;99.90
53264;DHT22;39153;52.680;6.172;2024-03-29T00:34:49;8.00;99.90
53264;DHT22;39153;52.680;6.172;2024-03-29T00:37:15;8.00;99.90
53264;DHT22;39153;52.680;6.172;2024-03-29T00:39:41;8.00;99.90
53264;DHT22;39153;52.680;6.172;2024-03-29T00:42:07;8.10;99.90
53264;DHT22;39153;52.680;6.172;2024-03-29T00:44:44;8.10;99.90
53264;DHT22;39153;52.680;6.172;2024-03-29T00:47:10;8.10;99.90
53264;DHT22;39153;52.680;6.172;2024-03-29T00:49:36;8.00;99.90
53264;DHT22;39153;52.680;6.172;2024-03-29T00:52:03;8.00;99.90
53264;DHT22;39153;52.680;6.172;2024-03-29T00:54:29;8.00;99.90
53264;DHT22;39153;52.680;6.172;2024-03-29T00:56:55;8.00;99.90
53264;DHT22;39153;52.680;6.172;2024-03-29T00:59:21;8.00;99.90
53264;DHT22;39153;52.680;6.172;2024-03-29T01:01:47;8.00;99.90
53264;DHT22;39153;52.680;6.172;2024-03-29T01:04:13;8.00;99.90
53264;DHT22;39153;52.680;6.172;2024-03-29T01:06:39;8.00;99.90
53264;DHT22;39153;52.680;6.172;2024-03-29T01:09:06;8.00;99.90
53264;DHT22;39153;52.680;6.172;2024-03-29T01:11:32;8.00;99.90
53264;DHT22;39153;52.680;6.172;2024-03-29T01:13:58;8.00;99.90
53264;DHT22;39153;52.680;6.172;2024-03-29T01:16:23;8.00;99.90
53264;DHT22;39153;52.680;6.172;2024-03-29T01:18:49;8.10;99.90
53264;DHT22;39153;52.680;6.172;2024-03-29T01:21:16;8.20;99.90
53264;DHT22;39153;52.680;6.172;2024-03-29T01:23:43;8.10;99.90
53264;DHT22;39153;52.680;6.172;2024-03-29T01:26:09;9.00;99.90
53264;DHT22;39153;52.680;6.172;2024-03-29T01:28:38;8.00;99.90
53264;DHT22;39153;52.680;6.172;2024-03-29T01:31:04;8.10;99.90
53264;DHT22;39153;52.680;6.172;2024-03-29T01:33:31;8.10;99.90
53264;DHT22;39153;52.680;6.172;2024-03-29T01:36:03;8.40;99.90
53264;DHT22;39153;52.680;6.172;2024-03-29T01:38:29;8.10;99.90
53264;DHT22;39153;52.680;6.172;2024-03-29T01:40:55;8.00;99.90
53264;DHT22;39153;52.680;6.172;2024-03-29T01:43:21;8.10;99.90
53264;DHT22;39153;52.680;6.172;2024-03-29T01:45:48;8.10;99.90
53264;DHT22;39153;52.680;6.172;2024-03-29T01:48:16;8.00;99.90
53264;DHT22;39153;52.680;6.172;2024-03-29T01:50:42;8.00;99.90
53264;DHT22;39153;52.680;6.172;2024-03-29T01:53:08;7.90;99.90
53264;DHT22;39153;52.680;6.172;2024-03-29T01:55:35;7.90;99.90
53264;DHT22;39153;52.680;6.172;2024-03-29T01:58:01;7.90;99.90
53264;DHT22;39153;52.680;6.172;2024-03-29T02:00:29;7.90;99.90
53264;DHT22;39153;52.680;6.172;2024-03-29T02:02:57;7.80;99.90
53264;DHT22;39153;52.680;6.172;2024-03-29T02:05:22;7.80;99.90
53264;DHT22;39153;52.680;6.172;2024-03-29T02:07:48;7.80;99.90
53264;DHT22;39153;52.680;6.172;2024-03-29T02:10:15;7.80;99.90
53264;DHT22;39153;52.680;6.172;2024-03-29T02:12:40;7.80;99.90
53264;DHT22;39153;52.680;6.172;2024-03-29T02:15:06;7.80;99.90
53264;DHT22;39153;52.680;6.172;2024-03-29T02:17:33;7.80;99.90
53264;DHT22;39153;52.680;6.172;2024-03-29T02:19:58;7.80;99.90
53264;DHT22;39153;52.680;6.172;2024-03-29T02:22:25;7.80;99.90
53264;DHT22;39153;52.680;6.172;2024-03-29T02:24:52;7.80;99.90
53264;DHT22;39153;52.680;6.172;2024-03-29T02:27:19;7.70;99.90
53264;DHT22;39153;52.680;6.172;2024-03-29T02:29:45;7.70;99.90
53264;DHT22;39153;52.680;6.172;2024-03-29T02:32:11;7.70;99.90
53264;DHT22;39153;52.680;6.172;2024-03-29T02:34:37;7.80;99.90
53264;DHT22;39153;52.680;6.172;2024-03-29T02:37:02;7.70;99.90
53264;DHT22;39153;52.680;6.172;2024-03-29T02:39:28;7.70;99.90
53264;DHT22;39153;52.680;6.172;2024-03-29T02:41:54;7.70;99.90
53264;DHT22;39153;52.680;6.172;2024-03-29T02:44:20;7.80;99.90
53264;DHT22;39153;52.680;6.172;2024-03-29T02:46:45;7.80;99.90
53264;DHT22;39153;52.680;6.172;2024-03-29T02:49:11;7.70;99.90
53264;DHT22;39153;52.680;6.172;2024-03-29T02:51:37;7.80;99.90
53264;DHT22;39153;52.680;6.172;2024-03-29T02:54:02;7.80;99.90
53264;DHT22;39153;52.680;6.172;2024-03-29T02:56:28;7.70;99.90
53264;DHT22;39153;52.680;6.172;2024-03-29T02:58:54;7.70;99.90
53264;DHT22;39153;52.680;6.172;2024-03-29T03:01:20;7.70;99.90
53264;DHT22;39153;52.680;6.172;2024-03-29T03:03:46;7.70;99.90
53264;DHT22;39153;52.680;6.172;2024-03-29T03:06:11;7.80;99.90
53264;DHT22;39153;52.680;6.172;2024-03-29T03:08:37;7.80;99.90
53264;DHT22;39153;52.680;6.172;2024-03-29T03:11:21;7.70;99.90
53264;DHT22;39153;52.680;6.172;2024-03-29T03:13:47;7.80;99.90
53264;DHT22;39153;52.680;6.172;2024-03-29T03:16:13;7.80;99.90
53264;DHT22;39153;52.680;6.172;2024-03-29T03:18:39;7.80;99.90
53264;DHT22;39153;52.680;6.172;2024-03-29T03:21:05;7.80;99.90
53264;DHT22;39153;52.680;6.172;2024-03-29T03:23:30;8.20;99.90
53264;DHT22;39153;52.680;6.172;2024-03-29T03:25:57;7.80;99.90
53264;DHT22;39153;52.680;6.172;2024-03-29T03:28:24;7.80;99.90
53264;DHT22;39153;52.680;6.172;2024-03-29T03:30:51;7.80;99.90
53264;DHT22;39153;52.680;6.172;2024-03-29T03:33:17;7.70;99.90
53264;DHT22;39153;52.680;6.172;2024-03-29T03:35:43;7.80;99.90
53264;DHT22;39153;52.680;6.172;2024-03-29T03:38:09;7.80;99.90
53264;DHT22;39153;52.680;6.172;2024-03-29T03:40:35;7.80;99.90
53264;DHT22;39153;52.680;6.172;2024-03-29T03:43:02;7.80;99.90
53264;DHT22;39153;52.680;6.172;2024-03-29T03:45:28;7.90;99.90
53264;DHT22;39153;52.680;6.172;2024-03-29T03:47:54;7.90;99.90
53264;DHT22;39153;52.680;6.172;2024-03-29T03:50:19;7.80;99.90
53264;DHT22;39153;52.680;6.172;2024-03-29T03:52:45;8.00;99.90
53264;DHT22;39153;52.680;6.172;2024-03-29T03:55:11;7.90;99.90
53264;DHT22;39153;52.680;6.172;2024-03-29T03:57:37;8.00;99.90
53264;DHT22;39153;52.680;6.172;2024-03-29T04:00:03;7.90;99.90
53264;DHT22;39153;52.680;6.172;2024-03-29T04:02:29;7.90;99.90
53264;DHT22;39153;52.680;6.172;2024-03-29T04:04:54;7.90;99.90
53264;DHT22;39153;52.680;6.172;2024-03-29T04:07:20;7.90;99.90
53264;DHT22;39153;52.680;6.172;2024-03-29T04:09:46;7.90;99.90
53264;DHT22;39153;52.680;6.172;2024-03-29T04:12:11;7.90;99.90
53264;DHT22;39153;52.680;6.172;2024-03-29T04:14:37;7.90;99.90
53264;DHT22;39153;52.680;6.172;2024-03-29T04:17:03;7.90;99.90
53264;DHT22;39153;52.680;6.172;2024-03-29T04:19:28;7.90;99.90
53264;DHT22;39153;52.680;6.172;2024-03-29T04:21:54;7.90;99.90
53264;DHT22;39153;52.680;6.172;2024-03-29T04:24:20;7.90;99.90
53264;DHT22;39153;52.680;6.172;2024-03-29T04:26:45;8.00;99.90
53264;DHT22;39153;52.680;6.172;2024-03-29T04:29:12;8.00;99.90
53264;DHT22;39153;52.680;6.172;2024-03-29T04:31:39;8.00;99.90
53264;DHT22;39153;52.680;6.172;2024-03-29T04:34:05;8.00;99.90
53264;DHT22;39153;52.680;6.172;2024-03-29T04:36:31;8.00;99.90
53264;DHT22;39153;52.680;6.172;2024-03-29T04:38:57;8.00;99.90
53264;DHT22;39153;52.680;6.172;2024-03-29T04:41:22;8.00;99.90
53264;DHT22;39153;52.680;6.172;2024-03-29T04:43:50;8.00;99.90
53264;DHT22;39153;52.680;6.172;2024-03-29T04:46:15;8.00;99.90
53264;DHT22;39153;52.680;6.172;2024-03-29T04:48:42;8.00;99.90
53264;DHT22;39153;52.680;6.172;2024-03-29T04:51:08;8.10;99.90
53264;DHT22;39153;52.680;6.172;2024-03-29T04:53:38;8.10;99.90
53264;DHT22;39153;52.680;6.172;2024-03-29T04:56:04;8.10;99.90
53264;DHT22;39153;52.680;6.172;2024-03-29T04:58:31;8.10;99.90
53264;DHT22;39153;52.680;6.172;2024-03-29T05:00:57;8.10;99.90
53264;DHT22;39153;52.680;6.172;2024-03-29T05:03:23;8.10;99.90
53264;DHT22;39153;52.680;6.172;2024-03-29T05:05:52;8.10;99.90
53264;DHT22;39153;52.680;6.172;2024-03-29T05:08:19;8.10;99.90
53264;DHT22;39153;52.680;6.172;2024-03-29T05:10:45;8.10;99.90
53264;DHT22;39153;52.680;6.172;2024-03-29T05:13:11;8.20;99.90
53264;DHT22;39153;52.680;6.172;2024-03-29T05:15:37;8.10;99.90
53264;DHT22;39153;52.680;6.172;2024-03-29T05:18:03;8.20;99.90
53264;DHT22;39153;52.680;6.172;2024-03-29T05:20:30;8.20;99.90
53264;DHT22;39153;52.680;6.172;2024-03-29T05:22:55;8.20;99.90
53264;DHT22;39153;52.680;6.172;2024-03-29T05:25:21;8.20;99.90
53264;DHT22;39153;52.680;6.172;2024-03-29T05:27:49;8.20;99.90
53264;DHT22;39153;52.680;6.172;2024-03-29T05:30:14;8.30;99.90
53264;DHT22;39153;52.680;6.172;2024-03-29T05:32:40;8.30;99.90
53264;DHT22;39153;52.680;6.172;2024-03-29T05:35:06;8.30;99.90
53264;DHT22;39153;52.680;6.172;2024-03-29T05:37:32;8.30;99.90
53264;DHT22;39153;52.680;6.172;2024-03-29T05:39:57;8.20;99.90
53264;DHT22;39153;52.680;6.172;2024-03-29T05:42:33;8.30;99.90
53264;DHT22;39153;52.680;6.172;2024-03-29T05:45:00;8.30;99.90
53264;DHT22;39153;52.680;6.172;2024-03-29T05:47:25;8.30;99.90
53264;DHT22;39153;52.680;6.172;2024-03-29T05:49:51;8.30;99.90
53264;DHT22;39153;52.680;6.172;2024-03-29T05:52:17;8.30;99.90
53264;DHT22;39153;52.680;6.172;2024-03-29T05:54:44;8.40;99.90
53264;DHT22;39153;52.680;6.172;2024-03-29T05:57:10;8.40;99.90
53264;DHT22;39153;52.680;6.172;2024-03-29T05:59:36;8.40;99.90
53264;DHT22;39153;52.680;6.172;2024-03-29T06:02:02;8.30;99.90
53264;DHT22;39153;52.680;6.172;2024-03-29T06:04:28;8.40;99.90
53264;DHT22;39153;52.680;6.172;2024-03-29T06:07:02;8.40;99.90
53264;DHT22;39153;52.680;6.172;2024-03-29T06:09:28;8.40;99.90
53264;DHT22;39153;52.680;6.172;2024-03-29T06:11:55;8.40;99.90
53264;DHT22;39153;52.680;6.172;2024-03-29T06:14:23;8.40;99.90
53264;DHT22;39153;52.680;6.172;2024-03-29T06:17:07;8.50;99.90
53264;DHT22;39153;52.680;6.172;2024-03-29T06:19:51;8.50;99.90
53264;DHT22;39153;52.680;6.172;2024-03-29T06:22:20;8.50;99.90
53264;DHT22;39153;52.680;6.172;2024-03-29T06:24:47;8.50;99.90
53264;DHT22;39153;52.680;6.172;2024-03-29T06:27:14;8.60;99.90
53264;DHT22;39153;52.680;6.172;2024-03-29T06:29:44;8.60;99.90
53264;DHT22;39153;52.680;6.172;2024-03-29T06:32:10;8.50;99.90
53264;DHT22;39153;52.680;6.172;2024-03-29T06:34:36;8.60;99.90
53264;DHT22;39153;52.680;6.172;2024-03-29T06:37:02;8.60;99.90
53264;DHT22;39153;52.680;6.172;2024-03-29T06:39:28;8.60;99.90
53264;DHT22;39153;52.680;6.172;2024-03-29T06:41:53;8.60;99.90
53264;DHT22;39153;52.680;6.172;2024-03-29T06:44:19;8.60;99.90
53264;DHT22;39153;52.680;6.172;2024-03-29T06:46:46;8.60;99.90
53264;DHT22;39153;52.680;6.172;2024-03-29T06:49:12;8.60;99.90
53264;DHT22;39153;52.680;6.172;2024-03-29T06:51:41;8.60;99.90
53264;DHT22;39153;52.680;6.172;2024-03-29T06:54:06;8.80;99.90
53264;DHT22;39153;52.680;6.172;2024-03-29T06:56:32;8.60;99.90
53264;DHT22;39153;52.680;6.172;2024-03-29T06:58:58;8.60;99.90
53264;DHT22;39153;52.680;6.172;2024-03-29T07:01:24;8.60;99.90
53264;DHT22;39153;52.680;6.172;2024-03-29T07:03:50;8.50;99.90
53264;DHT22;39153;52.680;6.172;2024-03-29T07:06:16;8.50;99.90
53264;DHT22;39153;52.680;6.172;2024-03-29T07:08:41;8.50;99.90
53264;DHT22;39153;52.680;6.172;2024-03-29T07:11:07;8.50;99.90
53264;DHT22;39153;52.680;6.172;2024-03-29T07:13:32;8.60;99.90
53264;DHT22;39153;52.680;6.172;2024-03-29T07:15:59;8.60;99.90
53264;DHT22;39153;52.680;6.172;2024-03-29T07:18:25;8.30;99.90
53264;DHT22;39153;52.680;6.172;2024-03-29T07:20:51;8.30;99.90
53264;DHT22;39153;52.680;6.172;2024-03-29T07:23:17;8.30;99.90
53264;DHT22;39153;52.680;6.172;2024-03-29T07:25:45;8.30;99.90
53264;DHT22;39153;52.680;6.172;2024-03-29T07:28:12;8.30;99.90
53264;DHT22;39153;52.680;6.172;2024-03-29T07:30:43;8.30;99.90
53264;DHT22;39153;52.680;6.172;2024-03-29T07:33:10;8.30;99.90
53264;DHT22;39153;52.680;6.172;2024-03-29T07:35:36;8.40;99.90
53264;DHT22;39153;52.680;6.172;2024-03-29T07:38:03;8.40;99.90
53264;DHT22;39153;52.680;6.172;2024-03-29T07:40:29;8.40;99.90
53264;DHT22;39153;52.680;6.172;2024-03-29T07:42:55;8.50;99.90
53264;DHT22;39153;52.680;6.172;2024-03-29T07:45:21;8.50;99.90
53264;DHT22;39153;52.680;6.172;2024-03-29T07:47:47;8.50;99.90
53264;DHT22;39153;52.680;6.172;2024-03-29T07:50:18;8.50;99.90
53264;DHT22;39153;52.680;6.172;2024-03-29T07:52:47;8.60;99.90
53264;DHT22;39153;52.680;6.172;2024-03-29T07:55:13;8.60;99.90
53264;DHT22;39153;52.680;6.172;2024-03-29T07:57:39;8.60;99.90
53264;DHT22;39153;52.680;6.172;2024-03-29T08:00:05;8.60;99.90
53264;DHT22;39153;52.680;6.172;2024-03-29T08:02:32;8.70;99.90
53264;DHT22;39153;52.680;6.172;2024-03-29T08:04:58;8.60;99.90
53264;DHT22;39153;52.680;6.172;2024-03-29T08:07:24;8.70;99.90
53264;DHT22;39153;52.680;6.172;2024-03-29T08:09:50;8.60;99.90
53264;DHT22;39153;52.680;6.172;2024-03-29T08:12:16;8.60;99.90
53264;DHT22;39153;52.680;6.172;2024-03-29T08:14:42;8.60;99.90
53264;DHT22;39153;52.680;6.172;2024-03-29T08:17:08;8.60;99.90
53264;DHT22;39153;52.680;6.172;2024-03-29T08:19:40;8.70;99.90
53264;DHT22;39153;52.680;6.172;2024-03-29T08:22:07;8.80;99.90
53264;DHT22;39153;52.680;6.172;2024-03-29T08:24:36;8.80;99.90
53264;DHT22;39153;52.680;6.172;2024-03-29T08:27:02;8.90;99.90
53264;DHT22;39153;52.680;6.172;2024-03-29T08:29:28;8.90;99.90
53264;DHT22;39153;52.680;6.172;2024-03-29T08:31:53;8.90;99.90
53264;DHT22;39153;52.680;6.172;2024-03-29T08:34:19;9.00;99.90
53264;DHT22;39153;52.680;6.172;2024-03-29T08:36:45;9.00;99.90
53264;DHT22;39153;52.680;6.172;2024-03-29T08:39:10;9.10;99.90
53264;DHT22;39153;52.680;6.172;2024-03-29T08:41:37;9.10;99.90
53264;DHT22;39153;52.680;6.172;2024-03-29T08:44:02;9.10;99.90
53264;DHT22;39153;52.680;6.172;2024-03-29T08:46:28;9.20;99.90
53264;DHT22;39153;52.680;6.172;2024-03-29T08:48:54;9.20;99.90
53264;DHT22;39153;52.680;6.172;2024-03-29T08:51:21;9.30;99.90
53264;DHT22;39153;52.680;6.172;2024-03-29T08:53:46;9.40;99.90
53264;DHT22;39153;52.680;6.172;2024-03-29T08:56:13;9.30;99.90
53264;DHT22;39153;52.680;6.172;2024-03-29T08:58:39;9.40;99.90
53264;DHT22;39153;52.680;6.172;2024-03-29T09:01:04;9.50;99.90
53264;DHT22;39153;52.680;6.172;2024-03-29T09:03:30;9.40;99.90
53264;DHT22;39153;52.680;6.172;2024-03-29T09:05:57;9.50;99.90
53264;DHT22;39153;52.680;6.172;2024-03-29T09:08:23;9.50;99.90
53264;DHT22;39153;52.680;6.172;2024-03-29T09:10:48;9.50;99.90
53264;DHT22;39153;52.680;6.172;2024-03-29T09:13:14;9.50;99.90
53264;DHT22;39153;52.680;6.172;2024-03-29T09:15:40;9.60;99.90
53264;DHT22;39153;52.680;6.172;2024-03-29T09:18:05;9.70;99.90
53264;DHT22;39153;52.680;6.172;2024-03-29T09:20:59;9.90;99.90
53264;DHT22;39153;52.680;6.172;2024-03-29T09:23:28;10.10;99.90
53264;DHT22;39153;52.680;6.172;2024-03-29T09:25:55;10.20;99.90
53264;DHT22;39153;52.680;6.172;2024-03-29T09:28:23;10.20;99.90
53264;DHT22;39153;52.680;6.172;2024-03-29T09:30:48;10.30;99.90
53264;DHT22;39153;52.680;6.172;2024-03-29T09:33:14;10.30;99.90
53264;DHT22;39153;52.680;6.172;2024-03-29T09:35:40;10.30;99.90
53264;DHT22;39153;52.680;6.172;2024-03-29T09:38:06;10.40;99.90
53264;DHT22;39153;52.680;6.172;2024-03-29T09:40:32;10.40;99.90
53264;DHT22;39153;52.680;6.172;2024-03-29T09:43:01;10.50;99.90
53264;DHT22;39153;52.680;6.172;2024-03-29T09:45:33;10.50;99.90
53264;DHT22;39153;52.680;6.172;2024-03-29T09:48:03;10.50;99.90
53264;DHT22;39153;52.680;6.172;2024-03-29T09:50:31;10.60;99.90
53264;DHT22;39153;52.680;6.172;2024-03-29T09:52:57;10.70;99.90
53264;DHT22;39153;52.680;6.172;2024-03-29T09:55:23;10.80;99.90
53264;DHT22;39153;52.680;6.172;2024-03-29T09:57:50;10.80;99.90
53264;DHT22;39153;52.680;6.172;2024-03-29T10:00:16;11.00;99.90
53264;DHT22;39153;52.680;6.172;2024-03-29T10:02:43;11.20;99.90
53264;DHT22;39153;52.680;6.172;2024-03-29T10:05:11;11.30;99.90
53264;DHT22;39153;52.680;6.172;2024-03-29T10:07:38;11.50;99.90
53264;DHT22;39153;52.680;6.172;2024-03-29T10:10:05;11.50;99.90
53264;DHT22;39153;52.680;6.172;2024-03-29T10:12:31;11.40;99.90
53264;DHT22;39153;52.680;6.172;2024-03-29T10:14:57;11.40;99.90
53264;DHT22;39153;52.680;6.172;2024-03-29T10:17:44;11.40;99.90
53264;DHT22;39153;52.680;6.172;2024-03-29T10:20:10;11.30;99.90
53264;DHT22;39153;52.680;6.172;2024-03-29T10:22:41;11.40;99.90
53264;DHT22;39153;52.680;6.172;2024-03-29T10:25:07;11.50;99.90
53264;DHT22;39153;52.680;6.172;2024-03-29T10:27:33;11.60;99.90
53264;DHT22;39153;52.680;6.172;2024-03-29T10:29:59;11.60;99.90
53264;DHT22;39153;52.680;6.172;2024-03-29T10:32:25;11.70;99.90
53264;DHT22;39153;52.680;6.172;2024-03-29T10:34:51;11.60;99.90
53264;DHT22;39153;52.680;6.172;2024-03-29T10:37:19;11.70;99.90
53264;DHT22;39153;52.680;6.172;2024-03-29T10:39:52;11.70;99.90
53264;DHT22;39153;52.680;6.172;2024-03-29T10:42:20;11.80;99.90
53264;DHT22;39153;52.680;6.172;2024-03-29T10:44:48;11.90;99.90
53264;DHT22;39153;52.680;6.172;2024-03-29T10:47:18;12.00;99.90
53264;DHT22;39153;52.680;6.172;2024-03-29T10:49:45;12.20;99.90
53264;DHT22;39153;52.680;6.172;2024-03-29T10:52:14;12.10;99.90
53264;DHT22;39153;52.680;6.172;2024-03-29T10:54:44;12.00;99.90
53264;DHT22;39153;52.680;6.172;2024-03-29T10:57:20;12.10;99.90
53264;DHT22;39153;52.680;6.172;2024-03-29T11:00:03;12.10;99.90
53264;DHT22;39153;52.680;6.172;2024-03-29T11:02:48;12.10;99.90
53264;DHT22;39153;52.680;6.172;2024-03-29T11:05:15;12.10;99.90
53264;DHT22;39153;52.680;6.172;2024-03-29T11:07:42;12.20;99.90
53264;DHT22;39153;52.680;6.172;2024-03-29T11:10:27;12.40;99.90
53264;DHT22;39153;52.680;6.172;2024-03-29T11:15:29;12.60;99.90
53264;DHT22;39153;52.680;6.172;2024-03-29T11:17:56;12.60;99.90
53264;DHT22;39153;52.680;6.172;2024-03-29T11:20:27;12.50;99.90
53264;DHT22;39153;52.680;6.172;2024-03-29T11:23:10;12.50;99.90
53264;DHT22;39153;52.680;6.172;2024-03-29T11:25:49;12.40;99.90
53264;DHT22;39153;52.680;6.172;2024-03-29T11:28:23;12.50;99.90
53264;DHT22;39153;52.680;6.172;2024-03-29T11:30:50;12.50;99.90
53264;DHT22;39153;52.680;6.172;2024-03-29T11:36:23;12.30;99.90
53264;DHT22;39153;52.680;6.172;2024-03-29T11:38:55;12.30;99.90
53264;DHT22;39153;52.680;6.172;2024-03-29T11:41:26;12.40;99.90
53264;DHT22;39153;52.680;6.172;2024-03-29T11:43:54;12.60;99.90
53264;DHT22;39153;52.680;6.172;2024-03-29T11:46:20;12.90;99.90
53264;DHT22;39153;52.680;6.172;2024-03-29T11:48:46;13.10;99.90
53264;DHT22;39153;52.680;6.172;2024-03-29T11:51:16;13.20;99.90
53264;DHT22;39153;52.680;6.172;2024-03-29T11:53:42;13.40;99.90
53264;DHT22;39153;52.680;6.172;2024-03-29T11:56:08;13.50;99.90
53264;DHT22;39153;52.680;6.172;2024-03-29T11:58:35;13.50;99.90
53264;DHT22;39153;52.680;6.172;2024-03-29T12:01:01;13.50;99.90
53264;DHT22;39153;52.680;6.172;2024-03-29T12:03:29;13.60;99.90
53264;DHT22;39153;52.680;6.172;2024-03-29T12:05:56;14.00;99.90
53264;DHT22;39153;52.680;6.172;2024-03-29T12:08:30;14.50;99.90
53264;DHT22;39153;52.680;6.172;2024-03-29T12:11:00;14.80;99.90
53264;DHT22;39153;52.680;6.172;2024-03-29T12:13:27;14.70;99.90
53264;DHT22;39153;52.680;6.172;2024-03-29T12:15:53;14.40;99.90
53264;DHT22;39153;52.680;6.172;2024-03-29T12:18:22;14.20;99.90
53264;DHT22;39153;52.680;6.172;2024-03-29T12:20:49;14.10;99.90
53264;DHT22;39153;52.680;6.172;2024-03-29T12:23:20;14.00;99.90
53264;DHT22;39153;52.680;6.172;2024-03-29T12:25:47;13.90;99.90
53264;DHT22;39153;52.680;6.172;2024-03-29T12:28:14;13.80;99.90
53264;DHT22;39153;52.680;6.172;2024-03-29T12:30:41;13.70;99.90
53264;DHT22;39153;52.680;6.172;2024-03-29T12:33:11;13.60;99.90
53264;DHT22;39153;52.680;6.172;2024-03-29T12:35:37;13.60;99.90
53264;DHT22;39153;52.680;6.172;2024-03-29T12:38:05;13.60;99.90
53264;DHT22;39153;52.680;6.172;2024-03-29T12:40:34;13.60;99.90
53264;DHT22;39153;52.680;6.172;2024-03-29T12:43:05;13.60;99.90
53264;DHT22;39153;52.680;6.172;2024-03-29T12:45:31;13.70;99.90
53264;DHT22;39153;52.680;6.172;2024-03-29T12:47:57;13.60;99.90
53264;DHT22;39153;52.680;6.172;2024-03-29T12:50:28;13.50;99.90
53264;DHT22;39153;52.680;6.172;2024-03-29T12:52:55;13.50;99.90
53264;DHT22;39153;52.680;6.172;2024-03-29T12:55:21;13.50;99.90
53264;DHT22;39153;52.680;6.172;2024-03-29T12:57:49;13.60;99.90
53264;DHT22;39153;52.680;6.172;2024-03-29T13:00:14;13.60;99.90
53264;DHT22;39153;52.680;6.172;2024-03-29T13:02:40;13.70;99.90
53264;DHT22;39153;52.680;6.172;2024-03-29T13:05:06;14.00;99.90
53264;DHT22;39153;52.680;6.172;2024-03-29T13:07:33;14.20;99.90
53264;DHT22;39153;52.680;6.172;2024-03-29T13:10:01;14.40;99.90
53264;DHT22;39153;52.680;6.172;2024-03-29T13:12:41;14.60;99.90
53264;DHT22;39153;52.680;6.172;2024-03-29T13:17:41;14.70;99.90
53264;DHT22;39153;52.680;6.172;2024-03-29T13:20:07;14.60;99.90
53264;DHT22;39153;52.680;6.172;2024-03-29T13:22:34;14.70;99.90
53264;DHT22;39153;52.680;6.172;2024-03-29T13:24:59;14.60;99.90
53264;DHT22;39153;52.680;6.172;2024-03-29T13:27:25;14.60;99.90
53264;DHT22;39153;52.680;6.172;2024-03-29T13:29:51;14.60;99.90
53264;DHT22;39153;52.680;6.172;2024-03-29T13:32:18;14.60;99.90
53264;DHT22;39153;52.680;6.172;2024-03-29T13:34:44;14.50;99.90
53264;DHT22;39153;52.680;6.172;2024-03-29T13:37:09;14.40;99.90
53264;DHT22;39153;52.680;6.172;2024-03-29T13:39:36;14.30;99.90
53264;DHT22;39153;52.680;6.172;2024-03-29T13:42:01;14.30;99.90
53264;DHT22;39153;52.680;6.172;2024-03-29T13:44:27;14.40;99.90
53264;DHT22;39153;52.680;6.172;2024-03-29T13:46:53;14.40;99.90
53264;DHT22;39153;52.680;6.172;2024-03-29T13:49:19;14.60;99.90
53264;DHT22;39153;52.680;6.172;2024-03-29T13:51:47;14.90;99.90
53264;DHT22;39153;52.680;6.172;2024-03-29T13:54:13;14.90;99.90
53264;DHT22;39153;52.680;6.172;2024-03-29T13:56:39;15.00;99.90
53264;DHT22;39153;52.680;6.172;2024-03-29T13:59:05;15.20;99.90
53264;DHT22;39153;52.680;6.172;2024-03-29T14:01:30;15.40;99.90
53264;DHT22;39153;52.680;6.172;2024-03-29T14:03:56;15.30;99.90
53264;DHT22;39153;52.680;6.172;2024-03-29T14:06:22;15.30;99.90
53264;DHT22;39153;52.680;6.172;2024-03-29T14:08:48;15.20;99.90
53264;DHT22;39153;52.680;6.172;2024-03-29T14:11:13;15.30;99.90
53264;DHT22;39153;52.680;6.172;2024-03-29T14:13:40;15.30;99.90
53264;DHT22;39153;52.680;6.172;2024-03-29T14:16:06;15.30;99.90
53264;DHT22;39153;52.680;6.172;2024-03-29T14:18:32;15.30;99.90
53264;DHT22;39153;52.680;6.172;2024-03-29T14:20:57;15.40;99.90
53264;DHT22;39153;52.680;6.172;2024-03-29T14:23:23;15.50;99.90
53264;DHT22;39153;52.680;6.172;2024-03-29T14:25:51;15.70;99.90
53264;DHT22;39153;52.680;6.172;2024-03-29T14:28:17;16.00;99.90
53264;DHT22;39153;52.680;6.172;2024-03-29T14:30:42;16.20;99.90
53264;DHT22;39153;52.680;6.172;2024-03-29T14:33:08;16.40;99.90
53264;DHT22;39153;52.680;6.172;2024-03-29T14:35:35;16.50;99.90
53264;DHT22;39153;52.680;6.172;2024-03-29T14:38:00;16.50;99.90
53264;DHT22;39153;52.680;6.172;2024-03-29T14:40:26;16.40;99.90
53264;DHT22;39153;52.680;6.172;2024-03-29T14:42:52;16.30;99.90
53264;DHT22;39153;52.680;6.172;2024-03-29T14:45:23;16.10;99.90
53264;DHT22;39153;52.680;6.172;2024-03-29T14:47:49;16.00;99.90
53264;DHT22;39153;52.680;6.172;2024-03-29T14:50:15;15.90;99.90
53264;DHT22;39153;52.680;6.172;2024-03-29T14:52:41;16.00;99.90
53264;DHT22;39153;52.680;6.172;2024-03-29T14:55:07;16.00;99.90
53264;DHT22;39153;52.680;6.172;2024-03-29T14:57:33;16.10;99.90
53264;DHT22;39153;52.680;6.172;2024-03-29T14:59:58;16.20;99.90
53264;DHT22;39153;52.680;6.172;2024-03-29T15:02:24;16.50;99.90
53264;DHT22;39153;52.680;6.172;2024-03-29T15:04:50;16.40;99.90
53264;DHT22;39153;52.680;6.172;2024-03-29T15:07:15;16.30;99.90
53264;DHT22;39153;52.680;6.172;2024-03-29T15:09:41;16.20;99.90
53264;DHT22;39153;52.680;6.172;2024-03-29T15:12:07;16.00;99.90
53264;DHT22;39153;52.680;6.172;2024-03-29T15:14:34;16.00;99.90
53264;DHT22;39153;52.680;6.172;2024-03-29T15:17:01;15.90;99.90
53264;DHT22;39153;52.680;6.172;2024-03-29T15:19:27;15.90;99.90
53264;DHT22;39153;52.680;6.172;2024-03-29T15:21:54;16.10;99.90
53264;DHT22;39153;52.680;6.172;2024-03-29T15:24:21;16.20;99.90
53264;DHT22;39153;52.680;6.172;2024-03-29T15:26:47;16.30;99.90
53264;DHT22;39153;52.680;6.172;2024-03-29T15:29:13;16.20;99.90
53264;DHT22;39153;52.680;6.172;2024-03-29T15:31:41;16.10;99.90
53264;DHT22;39153;52.680;6.172;2024-03-29T15:34:10;16.00;99.90
53264;DHT22;39153;52.680;6.172;2024-03-29T15:36:36;15.90;99.90
53264;DHT22;39153;52.680;6.172;2024-03-29T15:39:04;15.70;99.90
53264;DHT22;39153;52.680;6.172;2024-03-29T15:41:40;15.60;99.90
53264;DHT22;39153;52.680;6.172;2024-03-29T15:44:06;15.50;99.90
53264;DHT22;39153;52.680;6.172;2024-03-29T15:46:32;15.50;99.90